createdAt,value
2023-04-16T00:01:15.544Z,5.60
2023-04-16T00:03:42.927Z,5.90
2023-04-16T00:06:12.630Z,5.85
2023-04-16T00:08:41.107Z,5.70
2023-04-16T00:11:08.292Z,5.43
2023-04-16T00:13:35.712Z,6.25
2023-04-16T00:16:03.281Z,5.45
2023-04-16T00:18:31.002Z,6.18
2023-04-16T00:20:58.055Z,5.53
2023-04-16T00:23:25.538Z,6.18
2023-04-16T00:25:53.921Z,5.43
2023-04-16T00:28:21.388Z,5.57
2023-04-16T00:30:48.413Z,5.85
2023-04-16T00:33:17.121Z,6.07
2023-04-16T00:35:46.903Z,5.95
2023-04-16T00:38:14.673Z,5.78
2023-04-16T00:40:41.855Z,5.70
2023-04-16T00:43:08.952Z,6.28
2023-04-16T00:45:36.581Z,6.05
2023-04-16T00:48:04.227Z,6.00
2023-04-16T00:50:31.676Z,5.80
2023-04-16T00:52:58.686Z,6.38
2023-04-16T00:55:26.016Z,5.95
2023-04-16T00:57:53.110Z,5.70
2023-04-16T01:00:20.812Z,6.30
2023-04-16T01:02:48.118Z,5.80
2023-04-16T01:05:15.575Z,5.97
2023-04-16T01:07:42.760Z,5.78
2023-04-16T01:10:09.813Z,6.28
2023-04-16T01:12:36.893Z,6.57
2023-04-16T01:15:04.210Z,6.28
2023-04-16T01:17:31.548Z,6.15
2023-04-16T01:20:00.364Z,6.40
2023-04-16T01:22:30.167Z,6.07
2023-04-16T01:24:57.209Z,5.97
2023-04-16T01:27:24.332Z,6.57
2023-04-16T01:29:51.409Z,6.60
2023-04-16T01:32:18.445Z,6.70
2023-04-16T01:34:45.569Z,6.20
2023-04-16T01:37:12.816Z,6.32
2023-04-16T01:39:39.863Z,6.03
2023-04-16T01:42:06.900Z,6.00
2023-04-16T01:44:33.886Z,6.00
2023-04-16T01:47:01.210Z,6.25
2023-04-16T01:49:29.105Z,6.35
2023-04-16T01:51:56.222Z,6.10
2023-04-16T01:54:23.216Z,5.60
2023-04-16T01:56:50.784Z,5.57
2023-04-16T01:59:17.874Z,6.30
2023-04-16T02:01:44.987Z,6.00
2023-04-16T02:04:13.424Z,5.45
2023-04-16T02:06:40.498Z,5.25
2023-04-16T02:09:07.692Z,5.78
2023-04-16T02:11:35.074Z,5.40
2023-04-16T02:14:02.249Z,5.60
2023-04-16T02:16:29.323Z,5.40
2023-04-16T02:18:56.452Z,5.47
2023-04-16T02:21:23.504Z,6.38
2023-04-16T02:23:51.957Z,5.70
2023-04-16T02:26:19.122Z,5.60
2023-04-16T02:28:46.360Z,5.60
2023-04-16T02:31:13.420Z,5.70
2023-04-16T02:33:40.422Z,5.70
2023-04-16T02:36:07.761Z,5.72
2023-04-16T02:38:37.549Z,5.70
2023-04-16T02:41:04.639Z,5.15
2023-04-16T02:43:31.715Z,5.53
2023-04-16T02:45:59.511Z,5.50
2023-04-16T02:48:26.626Z,5.07
2023-04-16T02:50:53.689Z,5.22
2023-04-16T02:53:21.524Z,5.72
2023-04-16T02:55:55.753Z,5.60
2023-04-16T02:58:24.462Z,5.65
2023-04-16T03:00:52.921Z,5.30
2023-04-16T03:03:20.642Z,6.00
2023-04-16T03:05:48.517Z,5.88
2023-04-16T03:08:15.785Z,5.18
2023-04-16T03:10:42.805Z,5.07
2023-04-16T03:13:09.843Z,6.18
2023-04-16T03:15:37.120Z,5.55
2023-04-16T03:18:04.167Z,5.80
2023-04-16T03:20:31.172Z,5.45
2023-04-16T03:22:58.185Z,5.35
2023-04-16T03:25:25.232Z,5.45
2023-04-16T03:27:52.340Z,5.35
2023-04-16T03:30:19.430Z,5.65
2023-04-16T03:32:49.560Z,5.38
2023-04-16T03:35:16.594Z,5.72
2023-04-16T03:37:43.660Z,5.22
2023-04-16T03:40:11.369Z,5.50
2023-04-16T03:42:38.378Z,5.60
2023-04-16T03:45:05.973Z,5.80
2023-04-16T03:47:33.014Z,6.28
2023-04-16T03:49:59.996Z,5.90
2023-04-16T03:52:28.225Z,5.05
2023-04-16T03:54:55.401Z,5.90
2023-04-16T03:57:22.676Z,5.78
2023-04-16T03:59:49.719Z,6.15
2023-04-16T04:02:16.779Z,5.55
2023-04-16T04:04:43.976Z,6.00
2023-04-16T04:07:11.281Z,6.18
2023-04-16T04:09:38.382Z,6.18
2023-04-16T04:12:05.478Z,6.78
2023-04-16T04:14:32.546Z,6.50
2023-04-16T04:16:59.574Z,6.25
2023-04-16T04:19:26.553Z,6.50
2023-04-16T04:21:53.616Z,5.97
2023-04-16T04:24:20.596Z,6.10
2023-04-16T04:26:47.754Z,7.13
2023-04-16T04:29:17.529Z,6.28
2023-04-16T04:31:44.612Z,6.30
2023-04-16T04:34:12.492Z,6.50
2023-04-16T04:36:39.753Z,6.30
2023-04-16T04:39:06.946Z,5.40
2023-04-16T04:41:34.078Z,5.60
2023-04-16T04:44:01.431Z,5.43
2023-04-16T04:46:28.568Z,5.72
2023-04-16T04:48:55.880Z,5.97
2023-04-16T04:51:22.943Z,6.03
2023-04-16T04:53:49.931Z,5.50
2023-04-16T04:56:17.053Z,5.63
2023-04-16T04:58:44.317Z,4.75
2023-04-16T05:01:11.425Z,4.80
2023-04-16T05:03:38.731Z,5.10
2023-04-16T05:06:06.885Z,4.93
2023-04-16T05:08:33.880Z,5.47
2023-04-16T05:11:01.207Z,4.90
2023-04-16T05:13:28.528Z,4.68
2023-04-16T05:15:55.800Z,4.43
2023-04-16T05:18:22.884Z,5.15
2023-04-16T05:20:49.875Z,5.03
2023-04-16T05:23:16.882Z,5.47
2023-04-16T05:25:43.931Z,5.03
2023-04-16T05:28:11.435Z,4.65
2023-04-16T05:30:38.416Z,5.22
2023-04-16T05:33:05.892Z,4.70
2023-04-16T05:35:32.910Z,4.85
2023-04-16T05:37:59.939Z,5.53
2023-04-16T05:40:27.169Z,5.07
2023-04-16T05:42:54.171Z,4.65
2023-04-16T05:45:21.306Z,5.93
2023-04-16T05:47:48.443Z,5.22
2023-04-16T05:50:15.867Z,5.25
2023-04-16T05:52:42.930Z,5.45
2023-04-16T05:55:10.550Z,5.40
2023-04-16T05:57:37.704Z,4.95
2023-04-16T06:00:05.284Z,4.75
2023-04-16T06:02:32.546Z,5.30
2023-04-16T06:04:59.793Z,5.15
2023-04-16T06:07:26.752Z,5.00
2023-04-16T06:09:53.759Z,5.07
2023-04-16T06:12:20.800Z,4.75
2023-04-16T06:14:47.940Z,4.50
2023-04-16T06:17:14.998Z,3.97
2023-04-16T06:19:42.059Z,5.25
2023-04-16T06:22:09.176Z,5.10
2023-04-16T06:24:36.509Z,5.60
2023-04-16T06:27:03.702Z,5.55
2023-04-16T06:29:40.404Z,5.28
2023-04-16T06:32:08.856Z,4.90
2023-04-16T06:34:36.073Z,4.57
2023-04-16T06:37:03.116Z,4.38
2023-04-16T06:39:30.381Z,3.88
2023-04-16T06:41:57.640Z,3.72
2023-04-16T06:44:25.714Z,3.45
2023-04-16T06:46:52.811Z,4.03
2023-04-16T06:49:19.845Z,4.07
2023-04-16T06:51:46.907Z,3.75
2023-04-16T06:54:14.741Z,3.78
2023-04-16T06:56:41.724Z,3.65
2023-04-16T06:59:08.813Z,3.80
2023-04-16T07:01:36.509Z,3.75
2023-04-16T07:04:04.524Z,3.28
2023-04-16T07:06:32.113Z,3.25
2023-04-16T07:08:59.170Z,3.08
2023-04-16T07:11:26.620Z,3.40
2023-04-16T07:13:54.002Z,3.13
2023-04-16T07:16:21.155Z,3.45
2023-04-16T07:18:48.353Z,3.40
2023-04-16T07:21:15.580Z,3.28
2023-04-16T07:23:42.626Z,3.13
2023-04-16T07:26:09.706Z,3.20
2023-04-16T07:28:36.901Z,3.33
2023-04-16T07:31:04.346Z,2.80
2023-04-16T07:33:31.373Z,3.00
2023-04-16T07:35:58.551Z,3.03
2023-04-16T07:38:25.637Z,2.88
2023-04-16T07:40:52.662Z,2.90
2023-04-16T07:43:19.740Z,2.70
2023-04-16T07:45:46.764Z,2.47
2023-04-16T07:48:13.958Z,2.67
2023-04-16T07:50:43.636Z,2.75
2023-04-16T07:53:10.728Z,2.80
2023-04-16T07:55:38.005Z,3.10
2023-04-16T07:58:06.536Z,2.70
2023-04-16T08:00:33.586Z,3.03
2023-04-16T08:03:00.975Z,2.88
2023-04-16T08:05:28.152Z,2.60
2023-04-16T08:07:55.266Z,3.10
2023-04-16T08:10:22.473Z,3.10
2023-04-16T08:12:49.557Z,3.20
2023-04-16T08:15:16.875Z,3.13
2023-04-16T08:17:44.242Z,3.00
2023-04-16T08:20:15.011Z,3.33
2023-04-16T08:22:44.854Z,3.05
2023-04-16T08:25:12.082Z,2.63
2023-04-16T08:27:39.179Z,2.85
2023-04-16T08:30:07.090Z,2.70
2023-04-16T08:32:34.401Z,2.85
2023-04-16T08:35:01.447Z,2.92
2023-04-16T08:37:30.178Z,3.20
2023-04-16T08:39:57.223Z,3.00
2023-04-16T08:42:34.111Z,2.90
2023-04-16T08:45:16.286Z,3.30
2023-04-16T08:47:47.715Z,2.95
2023-04-16T08:50:28.426Z,3.28
2023-04-16T08:53:08.360Z,3.42
2023-04-16T08:55:40.943Z,2.50
2023-04-16T08:58:24.414Z,3.35
2023-04-16T09:00:51.938Z,2.70
2023-04-16T09:03:21.816Z,3.40
2023-04-16T09:05:50.635Z,3.00
2023-04-16T09:08:18.291Z,2.85
2023-04-16T09:10:45.910Z,3.10
2023-04-16T09:13:14.842Z,3.03
2023-04-16T09:15:42.479Z,2.95
2023-04-16T09:18:10.464Z,2.80
2023-04-16T09:20:37.654Z,2.70
2023-04-16T09:23:05.082Z,2.72
2023-04-16T09:25:35.431Z,2.78
2023-04-16T09:28:02.606Z,2.80
2023-04-16T09:30:29.692Z,2.80
2023-04-16T09:33:34.431Z,2.65
2023-04-16T09:36:02.514Z,2.85
2023-04-16T09:38:47.645Z,2.85
2023-04-16T09:41:18.480Z,2.95
2023-04-16T09:43:55.725Z,2.55
2023-04-16T09:46:23.454Z,3.10
2023-04-16T09:48:50.967Z,2.72
2023-04-16T09:51:18.131Z,2.75
2023-04-16T09:53:45.221Z,3.17
2023-04-16T09:56:13.290Z,3.33
2023-04-16T09:58:40.497Z,2.90
2023-04-16T10:01:10.538Z,2.63
2023-04-16T10:03:40.235Z,3.00
2023-04-16T10:06:19.989Z,2.75
2023-04-16T10:08:51.562Z,2.85
2023-04-16T10:11:19.544Z,2.80
2023-04-16T10:13:46.759Z,2.42
2023-04-16T10:16:14.162Z,2.95
2023-04-16T10:18:43.171Z,2.60
2023-04-16T10:21:12.820Z,2.63
2023-04-16T10:23:40.810Z,2.55
2023-04-16T10:26:07.990Z,2.42
2023-04-16T10:28:35.764Z,2.45
2023-04-16T10:31:05.693Z,3.00
2023-04-16T10:33:36.530Z,2.50
2023-04-16T10:36:22.858Z,2.30
2023-04-16T10:38:52.578Z,3.97
2023-04-16T10:41:22.616Z,3.17
2023-04-16T10:43:51.690Z,2.60
2023-04-16T10:46:19.656Z,2.58
2023-04-16T10:48:50.095Z,2.50
2023-04-16T10:51:30.183Z,2.60
2023-04-16T10:54:03.583Z,2.80
2023-04-16T10:56:33.300Z,2.30
2023-04-16T10:59:00.453Z,2.50
2023-04-16T11:01:38.527Z,2.60
2023-04-16T11:04:20.900Z,2.45
2023-04-16T11:07:14.180Z,2.50
2023-04-16T11:10:04.570Z,2.40
2023-04-16T11:12:32.895Z,2.83
2023-04-16T11:15:14.506Z,2.60
2023-04-16T11:17:52.952Z,2.42
2023-04-16T11:20:23.807Z,2.67
2023-04-16T11:22:52.190Z,2.42
2023-04-16T11:25:23.549Z,2.88
2023-04-16T11:27:52.145Z,2.75
2023-04-16T11:30:28.448Z,2.35
2023-04-16T11:32:55.921Z,2.20
2023-04-16T11:35:23.127Z,2.38
2023-04-16T11:37:50.169Z,3.10
2023-04-16T11:40:17.228Z,2.58
2023-04-16T11:42:44.566Z,3.00
2023-04-16T11:45:12.803Z,2.78
2023-04-16T11:47:52.301Z,2.70
2023-04-16T11:50:29.214Z,2.65
2023-04-16T11:52:58.015Z,2.60
2023-04-16T11:55:25.564Z,2.55
2023-04-16T11:57:52.877Z,2.53
2023-04-16T12:00:24.404Z,2.50
2023-04-16T12:02:55.641Z,2.58
2023-04-16T12:05:39.435Z,2.72
2023-04-16T12:08:09.154Z,2.53
2023-04-16T12:10:58.449Z,2.50
2023-04-16T12:13:25.643Z,2.85
2023-04-16T12:15:56.836Z,2.88
2023-04-16T12:18:28.780Z,2.40
2023-04-16T12:20:56.081Z,2.50
2023-04-16T12:23:33.982Z,2.80
2023-04-16T12:26:10.806Z,2.42
2023-04-16T12:28:39.449Z,2.47
2023-04-16T12:31:07.324Z,3.00
2023-04-16T12:33:34.456Z,2.90
2023-04-16T12:36:02.632Z,2.90
2023-04-16T12:38:30.464Z,2.42
2023-04-16T12:40:58.452Z,2.60
2023-04-16T12:43:25.999Z,2.92
2023-04-16T12:45:53.294Z,2.88
2023-04-16T12:48:20.540Z,2.78
2023-04-16T12:50:47.631Z,3.47
2023-04-16T12:53:14.688Z,3.40
2023-04-16T12:55:41.746Z,2.90
2023-04-16T12:58:11.877Z,3.10
2023-04-16T13:00:40.494Z,3.28
2023-04-16T13:03:07.923Z,3.10
2023-04-16T13:05:35.133Z,2.55
2023-04-16T13:08:02.325Z,2.90
2023-04-16T13:10:30.465Z,2.72
2023-04-16T13:12:57.479Z,3.40
2023-04-16T13:15:24.505Z,3.00
2023-04-16T13:17:51.645Z,3.40
2023-04-16T13:20:18.666Z,3.03
2023-04-16T13:22:45.825Z,2.60
2023-04-16T13:25:12.808Z,3.08
2023-04-16T13:27:39.974Z,2.60
2023-04-16T13:30:07.926Z,2.75
2023-04-16T13:32:34.997Z,3.65
2023-04-16T13:35:02.230Z,2.95
2023-04-16T13:37:30.539Z,2.58
2023-04-16T13:39:57.643Z,2.42
2023-04-16T13:42:24.768Z,2.58
2023-04-16T13:44:54.280Z,2.78
2023-04-16T13:47:21.844Z,2.80
2023-04-16T13:49:48.975Z,3.10
2023-04-16T13:52:16.217Z,2.90
2023-04-16T13:54:43.206Z,2.60
2023-04-16T13:57:10.324Z,2.72
2023-04-16T13:59:37.396Z,2.47
2023-04-16T14:02:05.286Z,2.53
2023-04-16T14:04:32.335Z,2.53
2023-04-16T14:06:59.382Z,2.20
2023-04-16T14:09:26.343Z,2.58
2023-04-16T14:11:53.392Z,2.28
2023-04-16T14:14:21.065Z,2.35
2023-04-16T14:16:48.249Z,2.95
2023-04-16T14:19:15.323Z,2.80
2023-04-16T14:21:42.849Z,3.17
2023-04-16T14:24:10.574Z,2.90
2023-04-16T14:26:37.951Z,2.75
2023-04-16T14:29:06.369Z,2.67
2023-04-16T14:31:33.646Z,2.70
2023-04-16T14:34:00.847Z,2.95
2023-04-16T14:36:28.084Z,3.00
2023-04-16T14:38:55.163Z,3.47
2023-04-16T14:41:22.240Z,3.38
2023-04-16T14:43:49.440Z,3.47
2023-04-16T14:46:17.853Z,3.03
2023-04-16T14:48:45.638Z,3.50
2023-04-16T14:51:12.769Z,3.22
2023-04-16T14:53:39.862Z,3.13
2023-04-16T14:56:09.628Z,3.30
2023-04-16T14:58:39.175Z,3.40
2023-04-16T15:01:06.543Z,3.55
2023-04-16T15:03:33.991Z,3.20
2023-04-16T15:06:01.658Z,3.55
2023-04-16T15:08:28.802Z,3.60
2023-04-16T15:10:56.021Z,3.22
2023-04-16T15:13:23.049Z,3.50
2023-04-16T15:15:50.373Z,3.00
2023-04-16T15:18:17.442Z,3.10
2023-04-16T15:20:44.507Z,3.30
2023-04-16T15:23:11.643Z,3.47
2023-04-16T15:25:38.647Z,3.17
2023-04-16T15:28:06.702Z,3.10
2023-04-16T15:30:33.887Z,3.17
2023-04-16T15:33:01.160Z,3.05
2023-04-16T15:35:28.227Z,3.00
2023-04-16T15:37:55.564Z,3.33
2023-04-16T15:40:22.691Z,3.45
2023-04-16T15:42:49.689Z,3.80
2023-04-16T15:45:16.952Z,3.67
2023-04-16T15:47:51.172Z,3.95
2023-04-16T15:50:19.875Z,3.35
2023-04-16T15:52:47.628Z,3.92
2023-04-16T15:55:18.533Z,3.55
2023-04-16T15:57:46.993Z,3.97
2023-04-16T16:00:16.285Z,3.40
2023-04-16T16:02:44.753Z,3.85
2023-04-16T16:05:13.807Z,3.50
2023-04-16T16:07:41.809Z,3.60
2023-04-16T16:10:10.540Z,3.80
2023-04-16T16:12:37.953Z,3.80
2023-04-16T16:15:06.523Z,3.90
2023-04-16T16:17:33.776Z,3.65
2023-04-16T16:20:01.225Z,4.20
2023-04-16T16:22:28.719Z,3.58
2023-04-16T16:24:57.680Z,3.80
2023-04-16T16:27:24.781Z,3.53
2023-04-16T16:29:52.254Z,3.88
2023-04-16T16:32:19.413Z,4.30
2023-04-16T16:34:46.474Z,4.10
2023-04-16T16:37:13.531Z,4.43
2023-04-16T16:39:59.482Z,4.07
2023-04-16T16:42:26.734Z,4.10
2023-04-16T16:44:55.921Z,4.15
2023-04-16T16:47:24.861Z,3.83
2023-04-16T16:49:52.413Z,4.25
2023-04-16T16:52:23.734Z,4.10
2023-04-16T16:54:51.107Z,4.60
2023-04-16T16:57:19.647Z,4.85
2023-04-16T17:00:14.503Z,4.47
2023-04-16T17:02:41.719Z,4.22
2023-04-16T17:05:09.252Z,4.85
2023-04-16T17:07:36.470Z,4.50
2023-04-16T17:10:06.606Z,5.38
2023-04-16T17:12:33.904Z,4.97
2023-04-16T17:15:01.073Z,4.72
2023-04-16T17:17:28.946Z,4.57
2023-04-16T17:19:56.139Z,4.30
2023-04-16T17:22:23.689Z,4.50
2023-04-16T17:24:50.811Z,4.25
2023-04-16T17:27:18.113Z,4.10
2023-04-16T17:29:45.165Z,4.13
2023-04-16T17:32:12.227Z,3.95
2023-04-16T17:34:39.314Z,4.10
2023-04-16T17:37:06.367Z,4.00
2023-04-16T17:39:33.494Z,4.32
2023-04-16T17:42:19.029Z,4.20
2023-04-16T17:44:46.918Z,4.60
2023-04-16T17:47:13.951Z,4.07
2023-04-16T17:49:41.048Z,4.00
2023-04-16T17:52:08.099Z,4.03
2023-04-16T17:54:35.096Z,4.30
2023-04-16T17:57:02.241Z,4.57
2023-04-16T17:59:29.321Z,5.95
2023-04-16T18:01:56.845Z,6.30
2023-04-16T18:04:23.980Z,6.05
2023-04-16T18:06:51.100Z,6.00
2023-04-16T18:09:19.494Z,7.30
2023-04-16T18:11:46.556Z,7.05
2023-04-16T18:14:16.897Z,6.88
2023-04-16T18:16:46.136Z,6.82
2023-04-16T18:19:13.343Z,6.47
2023-04-16T18:21:40.515Z,6.45
2023-04-16T18:24:08.058Z,7.15
2023-04-16T18:26:36.158Z,6.97
2023-04-16T18:29:04.072Z,7.22
2023-04-16T18:31:50.661Z,7.22
2023-04-16T18:34:17.838Z,6.68
2023-04-16T18:36:44.837Z,6.90
2023-04-16T18:39:11.858Z,7.80
2023-04-16T18:41:40.182Z,7.05
2023-04-16T18:44:07.247Z,7.82
2023-04-16T18:46:34.287Z,7.22
2023-04-16T18:49:01.551Z,8.13
2023-04-16T18:51:47.206Z,8.00
2023-04-16T18:54:14.441Z,8.25
2023-04-16T18:56:41.483Z,7.72
2023-04-16T18:59:08.713Z,8.05
2023-04-16T19:01:35.880Z,7.32
2023-04-16T19:04:03.546Z,7.13
2023-04-16T19:06:32.025Z,8.38
2023-04-16T19:08:59.068Z,8.15
2023-04-16T19:11:26.256Z,8.20
2023-04-16T19:14:12.059Z,7.97
2023-04-16T19:16:39.340Z,7.70
2023-04-16T19:19:06.476Z,7.75
2023-04-16T19:21:52.251Z,7.43
2023-04-16T19:24:20.032Z,8.15
2023-04-16T19:26:47.025Z,7.82
2023-04-16T19:29:14.042Z,7.57
2023-04-16T19:31:41.042Z,8.23
2023-04-16T19:34:08.167Z,7.95
2023-04-16T19:36:35.222Z,8.38
2023-04-16T19:39:21.166Z,7.93
2023-04-16T19:41:48.251Z,7.97
2023-04-16T19:44:15.479Z,8.15
2023-04-16T19:46:42.612Z,8.05
2023-04-16T19:49:09.953Z,8.50
2023-04-16T19:51:37.234Z,8.70
2023-04-16T19:54:04.430Z,8.13
2023-04-16T19:56:31.469Z,8.43
2023-04-16T19:58:59.024Z,8.13
2023-04-16T20:01:26.149Z,8.85
2023-04-16T20:03:53.359Z,8.50
2023-04-16T20:06:20.467Z,7.90
2023-04-16T20:08:47.504Z,8.05
2023-04-16T20:11:14.600Z,7.95
2023-04-16T20:13:41.608Z,7.95
2023-04-16T20:16:09.449Z,7.65
2023-04-16T20:18:41.519Z,6.68
2023-04-16T20:21:12.659Z,7.20
2023-04-16T20:23:39.749Z,6.75
2023-04-16T20:26:07.039Z,6.47
2023-04-16T20:28:34.021Z,6.57
2023-04-16T20:31:01.160Z,7.05
2023-04-16T20:33:28.214Z,6.35
2023-04-16T20:35:56.230Z,6.30
2023-04-16T20:38:23.974Z,6.78
2023-04-16T20:41:06.494Z,6.90
2023-04-16T20:43:38.709Z,7.03
2023-04-16T20:46:06.236Z,6.53
2023-04-16T20:48:33.686Z,6.97
2023-04-16T20:51:02.933Z,6.40
2023-04-16T20:53:34.246Z,6.82
2023-04-16T20:56:01.358Z,6.43
2023-04-16T20:58:28.488Z,6.50
2023-04-16T21:00:56.817Z,7.15
2023-04-16T21:03:24.740Z,7.22
2023-04-16T21:05:53.416Z,7.82
2023-04-16T21:08:24.064Z,6.72
2023-04-16T21:10:51.372Z,7.07
2023-04-16T21:13:18.778Z,6.57
2023-04-16T21:15:46.320Z,7.20
2023-04-16T21:18:13.400Z,6.40
2023-04-16T21:20:40.562Z,8.00
2023-04-16T21:23:07.941Z,6.80
2023-04-16T21:25:34.966Z,7.63
2023-04-16T21:28:01.968Z,7.25
2023-04-16T21:30:29.132Z,7.18
2023-04-16T21:32:56.223Z,7.93
2023-04-16T21:35:23.334Z,7.65
2023-04-16T21:37:50.340Z,7.38
2023-04-16T21:40:18.557Z,8.25
2023-04-16T21:42:47.041Z,8.30
2023-04-16T21:45:14.700Z,8.07
2023-04-16T21:47:41.731Z,8.48
2023-04-16T21:50:09.148Z,9.45
2023-04-16T21:52:40.730Z,7.95
2023-04-16T21:55:09.574Z,8.10
2023-04-16T21:57:36.717Z,7.20
2023-04-16T22:00:09.213Z,8.02
2023-04-16T22:02:36.628Z,7.75
2023-04-16T22:05:03.795Z,7.45
2023-04-16T22:07:30.952Z,8.63
2023-04-16T22:09:57.958Z,8.15
2023-04-16T22:12:25.121Z,7.32
2023-04-16T22:15:01.905Z,7.57
2023-04-16T22:17:31.073Z,7.32
2023-04-16T22:20:00.716Z,8.55
2023-04-16T22:22:27.915Z,8.15
2023-04-16T22:24:54.925Z,8.07
2023-04-16T22:27:22.179Z,7.57
2023-04-16T22:29:49.181Z,7.72
2023-04-16T22:32:16.301Z,8.10
2023-04-16T22:34:43.323Z,7.97
2023-04-16T22:37:10.357Z,7.55
2023-04-16T22:39:37.466Z,8.07
2023-04-16T22:42:04.586Z,7.72
2023-04-16T22:44:31.558Z,8.18
2023-04-16T22:46:58.610Z,7.53
2023-04-16T22:49:26.666Z,8.20
2023-04-16T22:51:54.316Z,8.55
2023-04-16T22:54:21.383Z,8.18
2023-04-16T22:56:48.691Z,8.40
2023-04-16T22:59:15.862Z,7.80
2023-04-16T23:01:43.185Z,8.45
2023-04-16T23:04:10.296Z,7.93
2023-04-16T23:06:37.417Z,8.05
2023-04-16T23:09:05.199Z,7.68
2023-04-16T23:11:32.311Z,8.40
2023-04-16T23:13:59.398Z,8.40
2023-04-16T23:16:27.276Z,8.05
2023-04-16T23:18:54.560Z,8.68
2023-04-16T23:21:21.947Z,7.85
2023-04-16T23:23:49.177Z,8.82
2023-04-16T23:26:16.701Z,8.60
2023-04-16T23:28:43.736Z,7.28
2023-04-16T23:31:10.804Z,8.75
2023-04-16T23:33:37.837Z,14.00
2023-04-16T23:36:05.240Z,10.27
2023-04-16T23:38:32.266Z,9.00
2023-04-16T23:40:59.382Z,9.30
2023-04-16T23:43:26.581Z,8.82
2023-04-16T23:45:53.621Z,9.18
2023-04-16T23:48:20.752Z,9.63
2023-04-16T23:50:47.755Z,8.32
2023-04-16T23:53:15.048Z,9.80
2023-04-16T23:55:42.068Z,8.77
2023-04-16T23:58:09.060Z,9.02
